Time;durP1;ratioP1;P1;durP2;ratioP2;P2;SDS_P1;SDS_P2;PMS_P1;PMS_P2;Temp;Humidity;BMP_temperature;BMP_pressure;BME280_temperature;BME280_humidity;BME280_pressure;Samples;Min_cycle;Max_cycle;Signal;HPM_P1;HPM_P2
2023/02/20 00:01:08;;;;;;;;;;;;;;;17.18;65.49;100855.06;7404318;19;1681;-39
2023/02/20 00:03:37;;;;;;;;;;;;;;;17.12;65.73;100858.22;7401454;19;2253;-39
2023/02/20 00:06:05;;;;;;;;;;;;;;;17.13;65.46;100865.28;7404100;19;1975;-39
2023/02/20 00:08:33;;;;;;;;;;;;;;;17.15;65.37;100870.47;7402598;19;1853;-39
2023/02/20 00:11:02;;;;;;;;;;;;;;;17.13;65.66;100885.78;7403008;19;1822;-39
2023/02/20 00:13:30;;;;;;;;;;;;;;;17.07;65.39;100874.63;7403099;19;2054;-39
2023/02/20 00:16:01;;;;;;;;;;;;;;;17.10;65.42;100885.03;7402930;19;1969;-39
2023/02/20 00:18:29;;;;;;;;;;;;;;;17.06;65.86;100878.25;7403705;19;2025;-39
2023/02/20 00:20:58;;;;;;;;;;;;;;;17.07;65.84;100863.94;7402727;19;2474;-39
2023/02/20 00:23:26;;;;;;;;;;;;;;;17.06;65.80;100870.22;7401745;19;1844;-39
2023/02/20 00:25:54;;;;;;;;;;;;;;;17.04;65.32;100861.50;7402263;19;1960;-39
2023/02/20 00:28:23;;;;;;;;;;;;;;;17.07;65.71;100860.41;7402249;19;2064;-39
2023/02/20 00:30:51;;;;;;;;;;;;;;;17.05;65.30;100847.16;7402153;19;2099;-39
2023/02/20 00:33:22;;;;;;;;;;;;;;;17.06;65.60;100864.03;7401799;19;2143;-39
2023/02/20 00:35:50;;;;;;;;;;;;;;;17.03;65.56;100845.56;7400732;19;1950;-39
2023/02/20 00:38:18;;;;;;;;;;;;;;;17.06;65.32;100864.88;7402647;19;2190;-39
2023/02/20 00:40:47;;;;;;;;;;;;;;;17.03;65.40;100859.81;7402718;19;1626;-39
2023/02/20 00:43:15;;;;;;;;;;;;;;;17.06;65.67;100859.53;7402345;19;1774;-39
2023/02/20 00:45:43;;;;;;;;;;;;;;;17.06;65.36;100862.22;7402000;19;2118;-39
2023/02/20 00:48:11;;;;;;;;;;;;;;;17.06;65.31;100864.88;7401142;19;1872;-39
2023/02/20 00:50:42;;;;;;;;;;;;;;;17.06;65.19;100859.53;7401942;19;1818;-39
2023/02/20 00:53:11;;;;;;;;;;;;;;;17.06;65.31;100869.38;7403670;19;1025;-39
2023/02/20 00:55:39;;;;;;;;;;;;;;;17.06;65.61;100858.69;7401394;19;2168;-39
2023/02/20 00:58:07;;;;;;;;;;;;;;;17.05;65.55;100873.00;7399321;19;2212;-39
2023/02/20 01:00:36;;;;;;;;;;;;;;;17.04;65.68;100879.34;7401401;19;1889;-39
2023/02/20 01:03:04;;;;;;;;;;;;;;;17.02;65.12;100878.63;7402715;19;2064;-39
2023/02/20 01:05:32;;;;;;;;;;;;;;;16.98;65.54;100867.31;7401795;19;2133;-39
2023/02/20 01:08:03;;;;;;;;;;;;;;;17.00;65.30;100849.34;7401099;19;2117;-39
2023/02/20 01:10:32;;;;;;;;;;;;;;;17.04;65.10;100876.66;7401950;19;1804;-39
2023/02/20 01:13:00;;;;;;;;;;;;;;;17.01;65.13;100874.22;7399948;19;2053;-39
2023/02/20 01:15:28;;;;;;;;;;;;;;;16.96;65.60;100892.44;7401510;19;2110;-39
2023/02/20 01:17:56;;;;;;;;;;;;;;;16.93;65.78;100888.22;7401333;19;2034;-39
2023/02/20 01:20:25;;;;;;;;;;;;;;;16.92;65.35;100877.63;7401286;19;1734;-39
2023/02/20 01:22:53;;;;;;;;;;;;;;;16.92;65.60;100889.16;7400233;19;2023;-39
2023/02/20 01:25:24;;;;;;;;;;;;;;;16.92;65.78;100894.50;7400239;19;2177;-39
2023/02/20 01:27:52;;;;;;;;;;;;;;;16.94;65.93;100887.22;7400197;19;2017;-39
2023/02/20 01:30:21;;;;;;;;;;;;;;;16.94;65.91;100902.41;7400702;19;2185;-39
2023/02/20 01:32:49;;;;;;;;;;;;;;;16.93;65.58;100890.88;7400338;19;2055;-39
2023/02/20 01:35:17;;;;;;;;;;;;;;;16.98;65.57;100882.50;7400831;19;2079;-39
2023/02/20 01:37:46;;;;;;;;;;;;;;;16.91;65.41;100884.81;7400881;19;2146;-39
2023/02/20 01:40:17;;;;;;;;;;;;;;;16.87;65.73;100885.97;7400017;19;2084;-39
2023/02/20 01:42:48;;;;;;;;;;;;;;;16.89;65.38;100868.03;7399591;19;2215;-39
2023/02/20 01:45:18;;;;;;;;;;;;;;;16.85;65.59;100875.44;7400874;19;1771;-39
2023/02/20 01:47:46;;;;;;;;;;;;;;;16.91;65.46;100879.47;7401152;19;2137;-39
2023/02/20 01:50:15;;;;;;;;;;;;;;;16.89;65.70;100868.03;7399782;19;2240;-39
2023/02/20 01:52:44;;;;;;;;;;;;;;;16.93;65.57;100890.88;7399958;19;2166;-39
2023/02/20 01:55:15;;;;;;;;;;;;;;;16.89;65.71;100874.22;7399195;19;1841;-39
2023/02/20 01:57:47;;;;;;;;;;;;;;;16.91;65.38;100887.47;7400125;19;2052;-39
2023/02/20 02:00:23;;;;;;;;;;;;;;;16.89;65.26;100878.69;7400302;19;1910;-39
2023/02/20 02:02:53;;;;;;;;;;;;;;;16.90;65.35;100894.63;7400985;19;2001;-39
2023/02/20 02:05:22;;;;;;;;;;;;;;;16.91;65.15;100908.84;7399588;19;2130;-39
2023/02/20 02:07:51;;;;;;;;;;;;;;;16.92;65.21;100886.50;7400901;19;1963;-39
2023/02/20 02:10:22;;;;;;;;;;;;;;;16.89;65.47;100894.72;7405593;19;2193;-39
2023/02/20 02:12:52;;;;;;;;;;;;;;;16.88;65.32;100898.38;7406697;19;2476;-39
2023/02/20 02:15:24;;;;;;;;;;;;;;;16.87;65.32;100896.66;7407330;19;2088;-39
2023/02/20 02:18:00;;;;;;;;;;;;;;;16.81;65.53;100915.81;7406411;19;2219;-39
2023/02/20 02:20:46;;;;;;;;;;;;;;;16.83;65.60;100889.84;7407119;19;2153;-39
2023/02/20 02:23:38;;;;;;;;;;;;;;;16.78;65.61;100916.91;7408121;19;2079;-39
2023/02/20 02:26:12;;;;;;;;;;;;;;;16.81;65.79;100905.13;7406729;19;1970;-39
2023/02/20 02:28:55;;;;;;;;;;;;;;;16.82;65.75;100896.19;7406270;19;1853;-39
2023/02/20 02:31:50;;;;;;;;;;;;;;;16.79;65.93;100905.25;7406008;19;2015;-39
2023/02/20 02:34:39;;;;;;;;;;;;;;;16.82;65.51;100904.19;7405254;19;2094;-39
2023/02/20 02:37:18;;;;;;;;;;;;;;;16.79;65.49;100926.63;7403716;19;2240;-39
2023/02/20 02:39:48;;;;;;;;;;;;;;;16.79;65.56;100933.78;7405791;19;2005;-39
2023/02/20 02:42:21;;;;;;;;;;;;;;;16.81;65.59;100947.84;7406119;19;1801;-39
2023/02/20 02:44:53;;;;;;;;;;;;;;;16.78;65.80;100946.28;7406635;19;2104;-39
2023/02/20 02:47:24;;;;;;;;;;;;;;;16.79;65.64;100957.81;7405149;19;1998;-39
2023/02/20 02:49:55;;;;;;;;;;;;;;;16.96;64.86;100969.91;7403909;19;2008;-39
2023/02/20 02:52:47;;;;;;;;;;;;;;;18.15;61.87;100970.38;7406638;19;2076;-39
2023/02/20 02:55:16;;;;;;;;;;;;;;;18.96;59.58;100969.94;7405653;19;1840;-39
2023/02/20 02:57:45;;;;;;;;;;;;;;;19.52;58.35;100969.59;7406137;19;2017;-40
2023/02/20 03:00:15;;;;;;;;;;;;;;;20.08;56.56;100981.69;7405052;19;2243;-39
2023/02/20 03:02:46;;;;;;;;;;;;;;;20.16;56.67;100981.84;7404562;19;2026;-39
2023/02/20 03:05:45;;;;;;;;;;;;;;;20.12;57.18;100984.97;7406025;19;2034;-39
2023/02/20 03:08:30;;;;;;;;;;;;;;;20.11;57.13;100986.78;7405086;19;2058;-39
2023/02/20 03:11:01;;;;;;;;;;;;;;;20.03;57.24;100984.81;7405911;19;2088;-39
2023/02/20 03:16:13;;;;;;;;;;;;;;;20.14;57.15;101002.63;7406574;19;1650;-39
2023/02/20 03:18:43;;;;;;;;;;;;;;;20.16;57.22;100994.44;7406121;19;2038;-40
2023/02/20 03:21:15;;;;;;;;;;;;;;;20.22;57.11;101002.78;7403122;19;1903;-39
2023/02/20 03:23:47;;;;;;;;;;;;;;;20.30;56.90;101003.94;7404301;19;1936;-39
2023/02/20 03:26:21;;;;;;;;;;;;;;;20.29;56.85;100995.00;7405356;19;2215;-39
2023/02/20 03:28:52;;;;;;;;;;;;;;;20.35;56.77;100999.84;7403180;19;2031;-39
2023/02/20 03:31:25;;;;;;;;;;;;;;;20.40;56.95;100999.44;7406191;19;1784;-39
2023/02/20 03:44:49;;;;;;;;;;;;;;;20.54;56.70;101004.38;7404373;19;2191;-39
2023/02/20 03:47:20;;;;;;;;;;;;;;;20.57;56.61;101011.31;7403413;19;2143;-40
2023/02/20 03:49:49;;;;;;;;;;;;;;;20.61;56.41;101002.00;7401690;19;2126;-39
2023/02/20 03:52:18;;;;;;;;;;;;;;;20.63;56.32;101006.28;7404717;19;1979;-39
2023/02/20 03:54:49;;;;;;;;;;;;;;;20.60;56.58;101005.69;7402994;19;2050;-39
2023/02/20 03:57:20;;;;;;;;;;;;;;;20.57;56.77;101004.13;7402944;19;2082;-39
2023/02/20 03:59:50;;;;;;;;;;;;;;;20.37;57.62;101016.69;7401409;19;2010;-39
2023/02/20 04:02:23;;;;;;;;;;;;;;;19.71;59.18;101002.84;7403611;19;1887;-39
2023/02/20 04:04:56;;;;;;;;;;;;;;;19.08;60.87;101028.75;7404310;19;1797;-39
2023/02/20 04:07:26;;;;;;;;;;;;;;;18.65;62.00;101059.06;7402073;19;1885;-39
2023/02/20 04:09:59;;;;;;;;;;;;;;;18.41;62.95;101053.91;7401831;19;1861;-39
2023/02/20 04:12:28;;;;;;;;;;;;;;;18.28;63.50;101034.44;7402548;19;2096;-39
2023/02/20 04:14:58;;;;;;;;;;;;;;;18.48;62.68;101046.22;7403712;19;1635;-39
2023/02/20 04:17:27;;;;;;;;;;;;;;;18.87;61.90;101076.09;7400171;19;2169;-39
2023/02/20 04:19:55;;;;;;;;;;;;;;;19.41;60.20;101087.69;7400639;19;1991;-39
2023/02/20 04:22:26;;;;;;;;;;;;;;;19.25;60.56;101094.31;7403684;19;1888;-39
2023/02/20 04:24:58;;;;;;;;;;;;;;;18.73;62.26;101103.16;7403850;19;1615;-39
2023/02/20 04:27:27;;;;;;;;;;;;;;;18.36;63.25;101080.19;7402562;19;2244;-39
2023/02/20 04:29:55;;;;;;;;;;;;;;;18.23;63.20;101091.03;7401296;19;2037;-39
2023/02/20 04:32:23;;;;;;;;;;;;;;;18.94;61.58;101087.16;7401438;19;2146;-39
2023/02/20 04:34:51;;;;;;;;;;;;;;;19.26;60.50;101095.19;7402044;19;1859;-39
2023/02/20 04:37:21;;;;;;;;;;;;;;;19.59;60.00;101102.19;7402999;19;2073;-39
2023/02/20 04:39:49;;;;;;;;;;;;;;;19.27;60.82;101102.25;7403218;19;1833;-39
2023/02/20 04:42:20;;;;;;;;;;;;;;;18.68;62.29;101104.38;7401784;19;2169;-39
2023/02/20 04:44:48;;;;;;;;;;;;;;;18.35;63.03;101121.34;7402515;19;2248;-39
2023/02/20 04:47:18;;;;;;;;;;;;;;;18.41;62.88;101126.19;7401683;19;2286;-39
2023/02/20 04:49:47;;;;;;;;;;;;;;;19.23;60.51;101132.97;7402149;19;1933;-39
2023/02/20 04:52:15;;;;;;;;;;;;;;;19.39;60.30;101129.88;7401850;19;2100;-39
2023/02/20 04:54:43;;;;;;;;;;;;;;;19.56;59.67;101107.00;7400938;19;2123;-39
2023/02/20 04:57:12;;;;;;;;;;;;;;;19.18;60.76;101097.66;7400916;19;2049;-39
2023/02/20 04:59:43;;;;;;;;;;;;;;;18.63;62.06;101122.63;7400681;19;1798;-39
2023/02/20 05:02:11;;;;;;;;;;;;;;;18.31;63.10;101137.78;7400753;19;2013;-39
2023/02/20 05:04:40;;;;;;;;;;;;;;;18.65;62.37;101144.78;7403037;19;1882;-39
2023/02/20 05:07:08;;;;;;;;;;;;;;;19.15;60.80;101151.53;7399913;19;2257;-39
2023/02/20 05:09:36;;;;;;;;;;;;;;;19.26;60.66;101138.09;7399024;19;1910;-39
2023/02/20 05:12:05;;;;;;;;;;;;;;;19.57;60.07;101156.97;7399988;19;1831;-39
2023/02/20 05:14:33;;;;;;;;;;;;;;;19.63;59.35;101151.06;7397046;19;2084;-39
2023/02/20 05:17:04;;;;;;;;;;;;;;;19.48;60.25;101164.81;7397717;19;1821;-39
2023/02/20 05:19:32;;;;;;;;;;;;;;;19.57;60.14;101178.44;7394804;19;2371;-40
2023/02/20 05:24:44;;;;;;;;;;;;;;;19.28;60.37;101190.63;7397716;19;1808;-39
2023/02/20 05:27:13;;;;;;;;;;;;;;;18.71;62.20;101199.72;7395479;19;2367;-40
2023/02/20 05:29:45;;;;;;;;;;;;;;;18.46;62.82;101203.47;7397879;19;1928;-40
2023/02/20 05:32:17;;;;;;;;;;;;;;;18.64;62.54;101206.53;7397293;19;1913;-39
2023/02/20 05:34:45;;;;;;;;;;;;;;;19.24;60.61;101204.41;7393850;19;1763;-40
2023/02/20 05:37:15;;;;;;;;;;;;;;;19.45;59.96;101207.97;7394661;19;1872;-40
2023/02/20 05:39:44;;;;;;;;;;;;;;;18.78;60.94;101219.69;7399611;19;1786;-40
2023/02/20 05:42:13;;;;;;;;;;;;;;;18.42;62.03;101239.50;7398395;19;1776;-40
2023/02/20 05:44:41;;;;;;;;;;;;;;;18.39;62.37;101258.50;7398722;19;2144;-40
2023/02/20 05:47:10;;;;;;;;;;;;;;;18.87;60.10;101242.22;7400560;19;1942;-39
2023/02/20 05:49:41;;;;;;;;;;;;;;;19.50;58.64;101241.59;7399862;19;2191;-40
2023/02/20 05:52:11;;;;;;;;;;;;;;;19.12;59.58;101250.97;7399991;19;2123;-40
2023/02/20 05:54:39;;;;;;;;;;;;;;;18.66;60.99;101258.16;7399563;19;2188;-40
2023/02/20 05:57:08;;;;;;;;;;;;;;;18.38;61.74;101272.84;7400519;19;2028;-39
2023/02/20 05:59:36;;;;;;;;;;;;;;;18.62;61.09;101279.00;7400014;19;1949;-39
2023/02/20 06:02:04;;;;;;;;;;;;;;;19.05;59.95;101275.59;7399074;19;1627;-40
2023/02/20 06:04:33;;;;;;;;;;;;;;;19.47;58.49;101275.75;7400642;19;1481;-40
2023/02/20 06:07:03;;;;;;;;;;;;;;;19.43;58.15;101285.03;7398329;19;1834;-39
2023/02/20 06:09:33;;;;;;;;;;;;;;;18.80;59.73;101310.69;7398340;19;1852;-40
2023/02/20 06:12:01;;;;;;;;;;;;;;;18.39;60.03;101318.25;7394219;19;2159;-40
2023/02/20 06:14:29;;;;;;;;;;;;;;;18.29;60.96;101318.13;7398468;19;1989;-40
2023/02/20 06:16:58;;;;;;;;;;;;;;;18.83;59.54;101323.84;7399129;19;1787;-39
2023/02/20 06:19:26;;;;;;;;;;;;;;;19.31;57.95;101323.56;7399943;19;1599;-40
2023/02/20 06:21:57;;;;;;;;;;;;;;;19.48;57.45;101347.22;7398515;19;1848;-40
2023/02/20 06:24:28;;;;;;;;;;;;;;;19.50;57.48;101343.53;7398073;19;1630;-40
2023/02/20 06:26:56;;;;;;;;;;;;;;;19.49;57.18;101358.78;7399719;19;1701;-39
2023/02/20 06:29:25;;;;;;;;;;;;;;;19.57;56.66;101344.75;7398439;19;1873;-40
2023/02/20 06:31:53;;;;;;;;;;;;;;;19.06;57.66;101338.13;7398127;19;1843;-40
2023/02/20 06:34:24;;;;;;;;;;;;;;;18.61;58.58;101354.09;7399510;19;2106;-40
2023/02/20 06:36:52;;;;;;;;;;;;;;;18.40;58.84;101368.19;7396509;19;2068;-39
2023/02/20 06:39:21;;;;;;;;;;;;;;;18.20;59.32;101360.78;7399040;19;1948;-39
2023/02/20 06:41:52;;;;;;;;;;;;;;;18.20;59.65;101383.03;7398958;19;1996;-40
2023/02/20 06:44:21;;;;;;;;;;;;;;;18.25;60.13;101378.22;7397653;19;1808;-39
2023/02/20 06:46:49;;;;;;;;;;;;;;;18.34;60.32;101387.38;7397907;19;1836;-40
2023/02/20 06:49:17;;;;;;;;;;;;;;;19.58;57.24;101384.03;7393365;19;1775;-39
2023/02/20 06:51:46;;;;;;;;;;;;;;;19.98;56.12;101397.75;7393189;19;1710;-39
2023/02/20 06:54:14;;;;;;;;;;;;;;;20.06;55.50;101384.53;7397437;19;1785;-40
2023/02/20 06:56:42;;;;;;;;;;;;;;;19.93;54.94;101391.03;7402223;19;1918;-39
2023/02/20 06:59:14;;;;;;;;;;;;;;;19.85;54.94;101389.84;7404607;19;1842;-39
2023/02/20 07:01:43;;;;;;;;;;;;;;;19.89;55.26;101397.66;7403185;19;2004;-40
2023/02/20 07:04:16;;;;;;;;;;;;;;;19.76;55.63;101392.44;7403351;19;1966;-39
2023/02/20 07:06:45;;;;;;;;;;;;;;;19.69;55.83;101397.41;7400502;19;1780;-39
2023/02/20 07:09:14;;;;;;;;;;;;;;;19.71;56.04;101399.97;7402975;19;1649;-39
2023/02/20 07:11:42;;;;;;;;;;;;;;;19.68;56.41;101401.94;7401893;19;1996;-39
2023/02/20 07:14:14;;;;;;;;;;;;;;;19.70;56.52;101431.31;7404339;19;1797;-39
2023/02/20 07:16:43;;;;;;;;;;;;;;;19.73;56.37;101435.63;7403864;19;1772;-39
2023/02/20 07:19:11;;;;;;;;;;;;;;;19.07;57.88;101429.13;7402389;19;1924;-39
2023/02/20 07:21:39;;;;;;;;;;;;;;;18.80;59.37;101453.56;7403932;19;1705;-39
2023/02/20 07:24:08;;;;;;;;;;;;;;;18.58;59.58;101435.56;7404063;19;1653;-40
2023/02/20 07:26:38;;;;;;;;;;;;;;;18.45;60.30;101432.09;7404617;19;1746;-39
2023/02/20 07:29:07;;;;;;;;;;;;;;;18.31;60.08;101438.47;7402761;19;1883;-39
2023/02/20 07:31:38;;;;;;;;;;;;;;;19.22;58.54;101448.53;7396890;19;1862;-39
2023/02/20 07:34:07;;;;;;;;;;;;;;;19.53;57.48;101450.59;7403247;19;1752;-40
2023/02/20 07:36:35;;;;;;;;;;;;;;;19.92;56.28;101457.31;7401469;19;2623;-40
2023/02/20 07:39:05;;;;;;;;;;;;;;;20.01;56.01;101474.50;7401727;19;1945;-39
2023/02/20 07:41:34;;;;;;;;;;;;;;;20.03;56.31;101456.41;7400945;19;1761;-41
2023/02/20 07:44:03;;;;;;;;;;;;;;;20.16;55.98;101481.28;7398686;19;1760;-40
2023/02/20 07:46:33;;;;;;;;;;;;;;;20.13;55.29;101443.09;7401181;19;2042;-39
2023/02/20 07:49:06;;;;;;;;;;;;;;;20.10;55.52;101471.06;7402288;19;1766;-39
2023/02/20 07:51:34;;;;;;;;;;;;;;;20.09;55.26;101480.06;7401894;19;1862;-39
2023/02/20 07:54:02;;;;;;;;;;;;;;;20.03;55.51;101491.31;7403431;19;1892;-39
2023/02/20 07:56:31;;;;;;;;;;;;;;;19.85;55.92;101481.09;7403355;19;1666;-40
2023/02/20 07:59:00;;;;;;;;;;;;;;;19.27;56.83;101489.22;7400868;19;1808;-39
2023/02/20 08:01:28;;;;;;;;;;;;;;;18.84;58.57;101495.22;7402830;19;1618;-39
2023/02/20 08:03:57;;;;;;;;;;;;;;;18.59;60.21;101514.94;7403990;19;1589;-39
2023/02/20 08:06:28;;;;;;;;;;;;;;;18.39;60.43;101497.66;7402656;19;1874;-39
2023/02/20 08:08:57;;;;;;;;;;;;;;;18.28;60.21;101519.91;7401180;19;1992;-40
2023/02/20 08:11:25;;;;;;;;;;;;;;;18.19;60.07;101528.59;7400937;19;1846;-40
2023/02/20 08:13:54;;;;;;;;;;;;;;;18.19;61.14;101533.94;7402351;19;1766;-40
2023/02/20 08:16:23;;;;;;;;;;;;;;;18.14;60.99;101540.59;7399740;19;1631;-39
2023/02/20 08:18:51;;;;;;;;;;;;;;;17.98;60.20;101522.94;7401831;19;1720;-40
2023/02/20 08:21:20;;;;;;;;;;;;;;;17.95;61.33;101541.94;7399964;19;1938;-39
2023/02/20 08:23:51;;;;;;;;;;;;;;;17.85;62.18;101547.06;7401579;19;2047;-39
2023/02/20 08:26:19;;;;;;;;;;;;;;;17.80;62.32;101538.47;7401581;19;2187;-39
2023/02/20 08:28:48;;;;;;;;;;;;;;;17.79;62.31;101539.44;7400884;19;2049;-40
2023/02/20 08:31:17;;;;;;;;;;;;;;;17.74;61.85;101546.09;7401980;19;1940;-39
2023/02/20 08:33:45;;;;;;;;;;;;;;;17.74;61.87;101560.31;7403416;19;2026;-39
2023/02/20 08:36:14;;;;;;;;;;;;;;;17.68;61.69;101563.41;7401090;19;2124;-39
2023/02/20 08:38:42;;;;;;;;;;;;;;;17.63;62.33;101557.56;7402771;19;2049;-39
2023/02/20 08:41:14;;;;;;;;;;;;;;;17.58;62.83;101562.34;7402697;19;1768;-39
2023/02/20 08:43:42;;;;;;;;;;;;;;;17.57;63.63;101585.56;7403505;19;1697;-39
2023/02/20 08:46:10;;;;;;;;;;;;;;;17.55;63.71;101589.28;7401187;19;2036;-39
2023/02/20 08:48:39;;;;;;;;;;;;;;;17.56;63.85;101599.03;7403377;19;1786;-39
2023/02/20 08:51:08;;;;;;;;;;;;;;;17.48;64.06;101592.41;7401074;19;1979;-39
2023/02/20 08:53:36;;;;;;;;;;;;;;;17.49;64.03;101590.59;7401490;19;1962;-39
2023/02/20 08:56:04;;;;;;;;;;;;;;;17.49;64.23;101593.28;7401829;19;1946;-39
2023/02/20 08:58:35;;;;;;;;;;;;;;;17.45;64.17;101583.75;7403327;19;1106;-39
2023/02/20 09:01:04;;;;;;;;;;;;;;;17.43;64.01;101593.69;7401049;19;1812;-39
2023/02/20 09:03:33;;;;;;;;;;;;;;;17.39;64.08;101590.38;7401158;19;2051;-40
2023/02/20 09:06:01;;;;;;;;;;;;;;;17.36;63.41;101601.25;7401560;19;1683;-39
2023/02/20 09:08:30;;;;;;;;;;;;;;;17.36;63.98;101593.25;7402383;19;2124;-40
2023/02/20 09:10:58;;;;;;;;;;;;;;;17.33;64.04;101577.44;7401128;19;2103;-39
2023/02/20 09:13:26;;;;;;;;;;;;;;;17.32;64.13;101605.09;7400137;19;1509;-39
2023/02/20 09:15:57;;;;;;;;;;;;;;;17.28;63.77;101584.88;7401652;19;1565;-39
2023/02/20 09:18:25;;;;;;;;;;;;;;;17.32;64.03;101602.44;7400668;19;2042;-39
2023/02/20 09:20:54;;;;;;;;;;;;;;;17.26;63.69;101605.53;7401083;19;1701;-39
2023/02/20 09:23:24;;;;;;;;;;;;;;;17.25;63.72;101611.84;7401017;19;2132;-39
2023/02/20 09:25:52;;;;;;;;;;;;;;;17.22;64.08;101612.88;7400410;19;1614;-39
2023/02/20 09:28:21;;;;;;;;;;;;;;;17.21;65.00;101607.63;7401336;19;1661;-40
2023/02/20 09:30:49;;;;;;;;;;;;;;;17.18;64.56;101599.84;7400074;19;1900;-40
2023/02/20 09:33:20;;;;;;;;;;;;;;;17.16;64.02;101613.31;7399993;19;1810;-39
2023/02/20 09:35:50;;;;;;;;;;;;;;;17.14;64.20;101601.00;7399639;19;2045;-39
2023/02/20 09:38:19;;;;;;;;;;;;;;;17.15;64.40;101597.34;7401336;19;2053;-39
2023/02/20 09:40:50;;;;;;;;;;;;;;;17.16;63.81;101588.41;7397248;19;2038;-39
2023/02/20 09:43:24;;;;;;;;;;;;;;;17.12;64.50;101584.22;7401306;19;2010;-39
2023/02/20 09:45:58;;;;;;;;;;;;;;;17.09;64.80;101591.47;7401026;19;1827;-39
2023/02/20 09:48:46;;;;;;;;;;;;;;;17.08;64.56;101589.75;7401089;19;2207;-39
2023/02/20 09:51:15;;;;;;;;;;;;;;;17.09;64.98;101599.50;7400738;19;2112;-39
2023/02/20 09:53:50;;;;;;;;;;;;;;;17.08;64.90;101592.44;7400846;19;2069;-39
2023/02/20 09:56:21;;;;;;;;;;;;;;;17.07;64.56;101588.06;7400155;19;2201;-39
2023/02/20 09:58:56;;;;;;;;;;;;;;;17.06;64.55;101586.34;7400611;19;2045;-39
2023/02/20 10:01:25;;;;;;;;;;;;;;;17.09;64.55;101586.16;7400011;19;2054;-39
2023/02/20 10:03:58;;;;;;;;;;;;;;;17.07;64.55;101587.22;7400755;19;2088;-39
2023/02/20 10:06:28;;;;;;;;;;;;;;;17.12;64.71;101595.75;7398747;19;2025;-39
2023/02/20 10:08:57;;;;;;;;;;;;;;;17.10;64.54;101603.03;7399460;19;2013;-40
2023/02/20 10:11:33;;;;;;;;;;;;;;;17.08;64.83;101600.44;7399009;19;2108;-39
2023/02/20 10:14:09;;;;;;;;;;;;;;;17.07;64.50;101604.09;7400462;19;2054;-39
2023/02/20 10:16:45;;;;;;;;;;;;;;;17.05;65.09;101608.69;7399290;19;2045;-39
2023/02/20 10:19:22;;;;;;;;;;;;;;;17.05;64.78;101606.00;7399556;19;1989;-39
2023/02/20 10:21:56;;;;;;;;;;;;;;;17.04;64.52;101588.25;7399286;19;2005;-39
2023/02/20 10:24:38;;;;;;;;;;;;;;;17.02;64.51;101595.50;7399375;19;2040;-39
2023/02/20 10:27:15;;;;;;;;;;;;;;;17.02;64.84;101595.50;7398970;19;1716;-39
2023/02/20 10:29:46;;;;;;;;;;;;;;;16.98;64.87;101587.81;7401094;19;1941;-39
2023/02/20 10:32:19;;;;;;;;;;;;;;;17.01;64.77;101596.50;7405691;19;1848;-39
2023/02/20 10:34:55;;;;;;;;;;;;;;;17.03;65.03;101597.25;7406881;19;2073;-39
2023/02/20 10:37:26;;;;;;;;;;;;;;;17.03;64.57;101586.56;7406923;19;2264;-39
2023/02/20 10:39:57;;;;;;;;;;;;;;;17.02;65.04;101578.63;7406889;19;1763;-39
2023/02/20 10:42:32;;;;;;;;;;;;;;;16.98;64.90;101571.78;7406553;19;1784;-40
2023/02/20 10:45:03;;;;;;;;;;;;;;;17.02;64.79;101570.63;7406275;19;2115;-39
2023/02/20 10:47:35;;;;;;;;;;;;;;;16.99;64.88;101569.03;7405859;19;2092;-39
2023/02/20 10:50:09;;;;;;;;;;;;;;;17.00;64.98;101564.53;7406652;19;1879;-39
2023/02/20 10:52:41;;;;;;;;;;;;;;;16.98;64.56;101561.09;7404624;19;2098;-40
2023/02/20 10:55:13;;;;;;;;;;;;;;;16.98;64.31;101572.63;7406841;19;2049;-39
2023/02/20 10:57:43;;;;;;;;;;;;;;;17.01;64.46;101556.41;7405941;19;1925;-39
2023/02/20 11:00:14;;;;;;;;;;;;;;;16.98;64.26;101569.97;7404500;19;1755;-40
2023/02/20 11:02:45;;;;;;;;;;;;;;;17.10;64.12;101562.94;7406819;19;2048;-40
2023/02/20 11:05:18;;;;;;;;;;;;;;;17.16;64.17;101564.34;7406146;19;2045;-39
2023/02/20 11:07:46;;;;;;;;;;;;;;;17.15;63.63;101555.47;7405657;19;2026;-39
2023/02/20 11:10:14;;;;;;;;;;;;;;;17.17;64.23;101556.22;7405699;19;2049;-39
2023/02/20 11:12:44;;;;;;;;;;;;;;;17.20;64.14;101549.81;7402561;19;2179;-39
2023/02/20 11:15:15;;;;;;;;;;;;;;;17.14;64.02;101529.69;7405752;19;1736;-39
2023/02/20 11:17:43;;;;;;;;;;;;;;;17.18;64.28;101551.72;7404957;19;1700;-39
2023/02/20 11:20:26;;;;;;;;;;;;;;;17.19;64.50;101548.97;7404926;19;2105;-39
2023/02/20 11:22:57;;;;;;;;;;;;;;;17.18;64.23;101538.38;7405045;19;2489;-39
2023/02/20 11:25:29;;;;;;;;;;;;;;;17.15;64.07;101542.13;7404783;19;2178;-39
2023/02/20 11:27:58;;;;;;;;;;;;;;;17.16;64.16;101529.59;7406357;19;1712;-39
2023/02/20 11:30:31;;;;;;;;;;;;;;;17.19;64.33;101522.22;7405245;19;1692;-39
2023/02/20 11:33:07;;;;;;;;;;;;;;;17.23;64.47;101526.41;7402724;19;2017;-39
2023/02/20 11:35:36;;;;;;;;;;;;;;;17.21;64.07;101525.66;7403994;19;2135;-39
2023/02/20 11:38:19;;;;;;;;;;;;;;;17.22;63.82;101518.50;7405282;19;2090;-39
2023/02/20 11:41:02;;;;;;;;;;;;;;;17.22;64.18;101500.63;7405265;19;2118;-39
2023/02/20 11:43:33;;;;;;;;;;;;;;;17.26;63.63;101511.97;7404671;19;1775;-39
2023/02/20 11:46:09;;;;;;;;;;;;;;;17.24;64.17;101509.38;7405016;19;2032;-39
2023/02/20 11:48:38;;;;;;;;;;;;;;;17.26;64.21;101503.94;7404575;19;2004;-39
2023/02/20 11:51:06;;;;;;;;;;;;;;;17.24;64.17;101508.53;7403689;19;2094;-39
2023/02/20 11:53:35;;;;;;;;;;;;;;;17.23;63.77;101504.16;7403865;19;2348;-39
2023/02/20 11:56:13;;;;;;;;;;;;;;;17.27;64.06;101521.72;7403726;19;1758;-39
2023/02/20 11:58:42;;;;;;;;;;;;;;;17.27;63.74;101521.72;7405093;19;1949;-39
2023/02/20 12:01:29;;;;;;;;;;;;;;;17.28;63.77;101516.22;7404790;19;1026;-40
2023/02/20 12:03:58;;;;;;;;;;;;;;;17.32;63.60;101527.56;7404530;19;2055;-39
2023/02/20 12:06:40;;;;;;;;;;;;;;;17.33;63.54;101523.97;7402599;19;2051;-39
2023/02/20 12:09:13;;;;;;;;;;;;;;;17.33;63.77;101512.38;7403528;19;2020;-39
2023/02/20 12:11:44;;;;;;;;;;;;;;;17.34;63.84;101516.78;7403128;19;2036;-40
2023/02/20 12:14:14;;;;;;;;;;;;;;;17.40;63.62;101527.91;7403235;19;2004;-39
2023/02/20 12:17:02;;;;;;;;;;;;;;;17.35;63.82;101511.34;7403747;19;2008;-39
2023/02/20 12:19:35;;;;;;;;;;;;;;;17.34;63.63;101517.63;7403196;19;1985;-39
2023/02/20 12:22:06;;;;;;;;;;;;;;;17.36;63.83;101513.03;7403763;19;1969;-39
2023/02/20 12:24:44;;;;;;;;;;;;;;;17.34;63.40;101498.06;7403507;19;2077;-40
2023/02/20 12:27:25;;;;;;;;;;;;;;;17.31;63.73;101491.13;7403453;19;1727;-39
2023/02/20 12:30:00;;;;;;;;;;;;;;;17.29;63.57;101493.91;7403201;19;2053;-40
2023/02/20 12:32:33;;;;;;;;;;;;;;;17.26;63.77;101491.44;7401742;19;2011;-39
2023/02/20 12:35:08;;;;;;;;;;;;;;;17.30;63.99;101502.78;7402768;19;1838;-39
2023/02/20 12:37:45;;;;;;;;;;;;;;;17.26;63.65;101495.94;7401953;19;2010;-39
2023/02/20 12:40:29;;;;;;;;;;;;;;;17.27;64.01;101503.00;7403193;19;2004;-39
2023/02/20 12:43:05;;;;;;;;;;;;;;;17.27;64.04;101497.66;7402212;19;1992;-40
2023/02/20 12:45:37;;;;;;;;;;;;;;;17.25;63.81;101499.56;7403065;19;2035;-39
2023/02/20 12:48:16;;;;;;;;;;;;;;;17.24;63.58;101490.69;7401946;19;2083;-39
2023/02/20 12:50:49;;;;;;;;;;;;;;;17.23;63.75;101496.13;7402994;19;1991;-39
2023/02/20 12:53:26;;;;;;;;;;;;;;;17.25;63.58;101500.44;7399347;19;2055;-39
2023/02/20 12:56:00;;;;;;;;;;;;;;;17.23;64.00;101497.00;7403126;19;1887;-39
2023/02/20 12:58:40;;;;;;;;;;;;;;;17.25;63.54;101491.56;7403392;19;1026;-39
2023/02/20 13:01:09;;;;;;;;;;;;;;;17.25;63.91;101489.72;7400747;19;1022;-39
2023/02/20 13:03:41;;;;;;;;;;;;;;;17.25;63.55;101481.72;7402505;19;2164;-39
2023/02/20 13:06:11;;;;;;;;;;;;;;;17.27;63.93;101487.81;7400592;19;1954;-39
2023/02/20 13:08:42;;;;;;;;;;;;;;;17.24;63.59;101495.19;7402145;19;1974;-39
2023/02/20 13:11:14;;;;;;;;;;;;;;;17.28;63.92;101485.97;7402459;19;1951;-39
2023/02/20 13:13:51;;;;;;;;;;;;;;;17.28;63.55;101477.97;7400344;19;1951;-39
2023/02/20 13:16:23;;;;;;;;;;;;;;;17.28;63.67;101483.31;7401155;19;1939;-39
2023/02/20 13:18:56;;;;;;;;;;;;;;;17.26;63.76;101478.06;7402115;19;2035;-39
2023/02/20 13:21:25;;;;;;;;;;;;;;;17.30;63.97;101484.06;7401445;19;1768;-40
2023/02/20 13:23:54;;;;;;;;;;;;;;;17.25;63.94;101475.53;7402355;19;2043;-39